createdAt,value
2019-05-14T00:00:42.826Z,9.20
2019-05-14T00:03:12.061Z,9.20
2019-05-14T00:05:42.409Z,9.20
2019-05-14T00:08:17.339Z,9.30
2019-05-14T00:10:45.085Z,9.30
2019-05-14T00:13:14.313Z,9.20
2019-05-14T00:15:43.488Z,9.10
2019-05-14T00:18:12.564Z,9.00
2019-05-14T00:20:42.055Z,9.00
2019-05-14T00:23:11.890Z,9.00
2019-05-14T00:25:41.939Z,9.00
2019-05-14T00:28:26.333Z,9.00
2019-05-14T00:30:55.612Z,8.90
2019-05-14T00:33:24.891Z,8.80
2019-05-14T00:35:55.010Z,8.90
2019-05-14T00:38:24.307Z,8.60
2019-05-14T00:40:55.458Z,8.60
2019-05-14T00:43:29.520Z,8.60
2019-05-14T00:46:01.493Z,8.70
2019-05-14T00:48:31.828Z,8.70
2019-05-14T00:51:02.142Z,8.70
2019-05-14T00:53:32.201Z,8.90
2019-05-14T00:56:02.167Z,8.50
2019-05-14T00:58:32.167Z,8.50
2019-05-14T01:01:01.782Z,8.50
2019-05-14T01:03:32.539Z,8.70
2019-05-14T01:06:02.902Z,8.50
2019-05-14T01:08:33.954Z,8.30
2019-05-14T01:11:03.315Z,8.30
2019-05-14T01:13:32.635Z,8.30
2019-05-14T01:16:01.919Z,8.40
2019-05-14T01:18:32.249Z,8.50
2019-05-14T01:21:05.254Z,8.50
2019-05-14T01:23:34.487Z,8.30
2019-05-14T01:26:03.666Z,8.40
2019-05-14T01:28:33.211Z,8.50
2019-05-14T01:31:02.623Z,8.40
2019-05-14T01:33:32.033Z,8.30
2019-05-14T01:36:02.163Z,8.40
2019-05-14T01:38:31.673Z,8.40
2019-05-14T01:41:01.934Z,8.40
2019-05-14T01:43:31.727Z,8.40
2019-05-14T01:46:01.916Z,8.40
2019-05-14T01:48:31.654Z,8.30
2019-05-14T01:51:01.544Z,8.30
2019-05-14T01:53:31.395Z,8.30
2019-05-14T01:56:01.606Z,8.20
2019-05-14T01:58:31.274Z,8.10
2019-05-14T02:01:01.960Z,8.10
2019-05-14T02:03:32.269Z,8.00
2019-05-14T02:06:01.702Z,7.90
2019-05-14T02:08:32.292Z,8.00
2019-05-14T02:11:01.942Z,8.00
2019-05-14T02:13:32.127Z,7.90
2019-05-14T02:16:03.426Z,7.90
2019-05-14T02:18:32.779Z,7.80
2019-05-14T02:21:02.012Z,7.70
2019-05-14T02:23:32.045Z,7.60
2019-05-14T02:26:02.526Z,7.50
2019-05-14T02:28:32.079Z,7.50
2019-05-14T02:31:03.646Z,7.60
2019-05-14T02:33:31.976Z,7.50
2019-05-14T02:36:01.718Z,7.50
2019-05-14T02:38:30.878Z,7.50
2019-05-14T02:41:00.322Z,7.40
2019-05-14T02:43:29.701Z,7.20
2019-05-14T02:46:10.631Z,7.20
2019-05-14T02:48:30.345Z,7.20
2019-05-14T02:51:00.156Z,7.30
2019-05-14T02:53:29.944Z,7.30
2019-05-14T02:55:59.916Z,7.10
2019-05-14T02:58:30.130Z,7.00
2019-05-14T03:01:02.404Z,7.00
2019-05-14T03:03:31.896Z,7.10
2019-05-14T03:06:01.297Z,7.00
2019-05-14T03:08:30.970Z,6.80
2019-05-14T03:11:00.651Z,6.80
2019-05-14T03:13:30.392Z,6.80
2019-05-14T03:15:59.857Z,6.70
2019-05-14T03:18:29.889Z,6.70
2019-05-14T03:21:05.436Z,6.70
2019-05-14T03:23:34.896Z,6.80
2019-05-14T03:26:04.714Z,6.70
2019-05-14T03:28:34.390Z,6.90
2019-05-14T03:31:04.290Z,7.00
2019-05-14T03:33:34.396Z,6.90
2019-05-14T03:36:09.373Z,6.80
2019-05-14T03:38:34.887Z,6.80
2019-05-14T03:41:04.357Z,6.70
2019-05-14T03:43:33.760Z,6.60
2019-05-14T03:46:03.094Z,6.50
2019-05-14T03:48:32.373Z,6.60
2019-05-14T03:51:01.658Z,6.70
2019-05-14T03:53:31.068Z,6.80
2019-05-14T03:56:00.944Z,6.80
2019-05-14T03:58:30.602Z,6.70
2019-05-14T04:01:02.023Z,6.70
2019-05-14T04:03:32.045Z,6.70
2019-05-14T04:06:02.470Z,6.70
2019-05-14T04:08:33.071Z,6.60
2019-05-14T04:11:02.608Z,6.60
2019-05-14T04:13:33.256Z,6.70
2019-05-14T04:16:09.182Z,6.60
2019-05-14T04:18:40.509Z,6.60
2019-05-14T04:21:09.901Z,6.20
2019-05-14T04:23:41.067Z,6.30
2019-05-14T04:26:11.909Z,6.30
2019-05-14T04:28:43.112Z,6.50
2019-05-14T04:31:13.668Z,6.50
2019-05-14T04:33:49.083Z,6.50
2019-05-14T04:36:19.467Z,6.60
2019-05-14T04:38:51.436Z,6.50
2019-05-14T04:41:19.673Z,6.60
2019-05-14T04:43:50.069Z,6.40
2019-05-14T04:46:20.190Z,6.50
2019-05-14T04:48:51.204Z,6.70
2019-05-14T04:51:20.728Z,6.60
2019-05-14T04:53:50.562Z,6.80
2019-05-14T04:56:20.174Z,6.80
2019-05-14T04:58:50.044Z,6.80
2019-05-14T05:01:20.999Z,6.70
2019-05-14T05:03:50.791Z,6.80
2019-05-14T05:06:20.299Z,7.00
2019-05-14T05:08:50.127Z,7.00
2019-05-14T05:11:21.386Z,7.00
2019-05-14T05:13:50.953Z,7.10
2019-05-14T05:16:20.589Z,7.20
2019-05-14T05:18:49.856Z,7.30
2019-05-14T05:21:19.508Z,7.40
2019-05-14T05:23:49.551Z,7.40
2019-05-14T05:26:18.803Z,7.30
2019-05-14T05:29:02.330Z,7.00
2019-05-14T05:31:19.005Z,7.20
2019-05-14T05:33:48.979Z,7.40
2019-05-14T05:36:18.626Z,7.40
2019-05-14T05:38:49.139Z,7.60
2019-05-14T05:41:19.179Z,7.50
2019-05-14T05:43:48.872Z,7.50
2019-05-14T05:46:19.232Z,7.60
2019-05-14T05:48:49.069Z,7.60
2019-05-14T05:51:22.328Z,7.80
2019-05-14T05:53:51.378Z,7.80
2019-05-14T05:56:20.810Z,7.90
2019-05-14T05:58:50.526Z,7.90
2019-05-14T06:01:19.952Z,7.90
2019-05-14T06:03:49.610Z,8.00
2019-05-14T06:06:19.510Z,8.10
2019-05-14T06:08:49.192Z,8.30
2019-05-14T06:11:19.403Z,8.30
2019-05-14T06:13:48.938Z,8.50
2019-05-14T06:16:18.741Z,8.70
2019-05-14T06:18:48.612Z,8.80
2019-05-14T06:21:19.218Z,8.90
2019-05-14T06:23:49.487Z,8.80
2019-05-14T06:26:19.381Z,8.90
2019-05-14T06:28:49.661Z,9.10
2019-05-14T06:31:19.702Z,9.30
2019-05-14T06:33:49.104Z,9.40
2019-05-14T06:36:19.644Z,9.60
2019-05-14T06:38:49.447Z,9.70
2019-05-14T06:41:21.993Z,9.70
2019-05-14T06:43:51.012Z,9.90
2019-05-14T06:46:19.963Z,10.10
2019-05-14T06:48:49.055Z,10.40
2019-05-14T06:51:19.899Z,10.70
2019-05-14T06:53:49.881Z,10.80
2019-05-14T06:56:21.672Z,11.20
2019-05-14T06:58:49.947Z,11.20
2019-05-14T07:01:19.165Z,11.20
2019-05-14T07:03:48.998Z,11.20
2019-05-14T07:06:18.800Z,11.30
2019-05-14T07:08:48.652Z,11.30
2019-05-14T07:11:19.053Z,11.10
2019-05-14T07:13:49.087Z,11.10
2019-05-14T07:16:19.771Z,11.30
2019-05-14T07:18:53.691Z,11.70
2019-05-14T07:21:19.869Z,12.00
2019-05-14T07:23:49.212Z,12.40
2019-05-14T07:26:19.313Z,12.60
2019-05-14T07:28:49.070Z,12.60
2019-05-14T07:31:18.787Z,13.10
2019-05-14T07:33:49.317Z,12.80
2019-05-14T07:36:19.053Z,13.10
2019-05-14T07:38:49.243Z,12.40
2019-05-14T07:41:19.280Z,13.00
2019-05-14T07:43:48.620Z,13.00
2019-05-14T07:46:19.075Z,13.10
2019-05-14T07:49:03.866Z,13.40
2019-05-14T07:51:19.427Z,13.50
2019-05-14T07:53:48.955Z,13.70
2019-05-14T07:56:18.677Z,14.50
2019-05-14T07:58:49.228Z,14.50
2019-05-14T08:01:18.820Z,15.00
2019-05-14T08:03:48.749Z,15.30
2019-05-14T08:06:19.121Z,15.30
2019-05-14T08:08:49.303Z,15.30
2019-05-14T08:11:19.214Z,14.60
2019-05-14T08:13:49.381Z,15.00
2019-05-14T08:16:19.028Z,15.60
2019-05-14T08:18:48.909Z,15.80
2019-05-14T08:21:19.477Z,15.30
2019-05-14T08:23:48.890Z,15.30
2019-05-14T08:26:19.170Z,15.40
2019-05-14T08:28:48.995Z,16.00
2019-05-14T08:31:18.810Z,16.30
2019-05-14T08:33:48.894Z,16.50
2019-05-14T08:36:18.615Z,16.90
2019-05-14T08:38:49.935Z,16.60
2019-05-14T08:41:19.846Z,15.80
2019-05-14T08:43:49.267Z,15.10
2019-05-14T08:46:19.171Z,14.40
2019-05-14T08:48:49.522Z,14.70
2019-05-14T08:51:19.342Z,15.10
2019-05-14T08:53:50.351Z,15.40
2019-05-14T08:56:19.446Z,15.80
2019-05-14T08:58:49.461Z,15.50
2019-05-14T09:01:19.749Z,15.50
2019-05-14T09:03:49.443Z,14.80
2019-05-14T09:06:18.987Z,15.30
2019-05-14T09:08:49.673Z,16.10
2019-05-14T09:11:24.573Z,16.20
2019-05-14T09:13:49.829Z,16.60
2019-05-14T09:16:19.455Z,16.90
2019-05-14T09:18:49.259Z,17.00
2019-05-14T09:21:20.514Z,17.20
2019-05-14T09:23:49.566Z,17.90
2019-05-14T09:26:18.628Z,18.40
2019-05-14T09:28:48.232Z,18.90
2019-05-14T09:31:19.631Z,18.90
2019-05-14T09:33:50.230Z,18.70
2019-05-14T09:36:23.901Z,18.70
2019-05-14T09:38:51.566Z,18.80
2019-05-14T09:41:20.877Z,18.90
2019-05-14T09:43:50.766Z,18.20
2019-05-14T09:46:20.077Z,17.80
2019-05-14T09:48:49.056Z,17.80
2019-05-14T09:51:18.598Z,18.00
2019-05-14T09:53:48.919Z,17.90
2019-05-14T09:56:18.802Z,17.90
2019-05-14T09:58:49.645Z,17.60
2019-05-14T10:01:19.390Z,17.10
2019-05-14T10:03:49.606Z,17.30
2019-05-14T10:06:20.627Z,17.50
2019-05-14T10:08:50.484Z,17.70
2019-05-14T10:11:19.573Z,17.40
2019-05-14T10:13:48.601Z,16.90
2019-05-14T10:16:18.974Z,17.20
2019-05-14T10:18:49.047Z,17.20
2019-05-14T10:21:19.200Z,16.90
2019-05-14T10:23:48.194Z,17.10
2019-05-14T10:26:18.537Z,17.20
2019-05-14T10:28:48.528Z,16.80
2019-05-14T10:31:18.507Z,16.40
2019-05-14T10:33:48.567Z,16.50
2019-05-14T10:36:19.234Z,16.10
2019-05-14T10:38:48.447Z,15.70
2019-05-14T10:41:18.408Z,15.70
2019-05-14T10:43:49.753Z,16.10
2019-05-14T10:46:19.314Z,16.50
2019-05-14T10:48:48.651Z,16.90
2019-05-14T10:51:18.213Z,17.00
2019-05-14T10:53:48.770Z,17.00
2019-05-14T10:56:19.370Z,16.80
2019-05-14T10:58:49.047Z,17.10
2019-05-14T11:01:22.116Z,17.50
2019-05-14T11:03:49.297Z,17.60
2019-05-14T11:06:18.926Z,17.80
2019-05-14T11:08:49.207Z,17.60
2019-05-14T11:11:18.709Z,17.30
2019-05-14T11:13:47.764Z,17.20
2019-05-14T11:16:18.934Z,17.50
2019-05-14T11:18:49.859Z,18.10
2019-05-14T11:21:25.762Z,19.10
2019-05-14T11:23:49.413Z,18.50
2019-05-14T11:26:18.727Z,18.00
2019-05-14T11:28:49.099Z,18.10
2019-05-14T11:31:19.245Z,18.40
2019-05-14T11:33:49.632Z,19.00
2019-05-14T11:36:19.085Z,19.80
2019-05-14T11:38:50.656Z,19.20
2019-05-14T11:41:19.093Z,19.90
2019-05-14T11:43:49.282Z,20.20
2019-05-14T11:46:29.568Z,19.80
2019-05-14T11:48:49.440Z,19.60
2019-05-14T11:51:23.789Z,19.30
2019-05-14T11:53:49.737Z,20.00
2019-05-14T11:56:19.533Z,19.70
2019-05-14T11:58:48.783Z,19.90
2019-05-14T12:01:19.035Z,18.60
2019-05-14T12:03:50.442Z,18.30
2019-05-14T12:06:19.568Z,19.20
2019-05-14T12:08:48.667Z,19.40
2019-05-14T12:11:19.252Z,19.40
2019-05-14T12:13:48.816Z,19.50
2019-05-14T12:16:18.388Z,18.60
2019-05-14T12:18:48.413Z,19.60
2019-05-14T12:21:17.691Z,20.20
2019-05-14T12:23:46.931Z,20.90
2019-05-14T12:26:18.868Z,21.00
2019-05-14T12:28:49.174Z,21.00
2019-05-14T12:31:17.385Z,20.90
2019-05-14T12:33:48.672Z,20.60
2019-05-14T12:36:19.377Z,20.40
2019-05-14T12:38:47.696Z,20.20
2019-05-14T12:41:19.427Z,20.60
2019-05-14T12:43:47.470Z,20.90
2019-05-14T12:46:16.380Z,21.20
2019-05-14T12:48:45.459Z,22.00
2019-05-14T12:51:14.549Z,21.70
2019-05-14T12:53:43.403Z,21.40
2019-05-14T12:56:12.498Z,21.90
2019-05-14T12:58:45.435Z,22.20
2019-05-14T13:01:12.357Z,21.40
2019-05-14T13:03:41.385Z,21.50
2019-05-14T13:06:10.469Z,21.20
2019-05-14T13:08:39.558Z,21.20
2019-05-14T13:11:09.668Z,21.30
2019-05-14T13:13:42.663Z,20.80
2019-05-14T13:16:09.647Z,20.80
2019-05-14T13:18:38.915Z,20.90
2019-05-14T13:21:08.071Z,20.40
2019-05-14T13:23:38.287Z,20.40
2019-05-14T13:26:10.466Z,19.70
2019-05-14T13:28:39.993Z,19.10
2019-05-14T13:31:09.165Z,18.30
2019-05-14T13:33:39.238Z,18.70
2019-05-14T13:36:08.605Z,19.10
2019-05-14T13:38:39.692Z,19.40
2019-05-14T13:41:08.833Z,19.30
2019-05-14T13:43:39.013Z,19.10
2019-05-14T13:46:12.621Z,18.70
2019-05-14T13:48:43.509Z,18.80
2019-05-14T13:51:11.219Z,18.90
2019-05-14T13:53:40.205Z,19.00
2019-05-14T13:56:09.435Z,18.80
2019-05-14T13:58:38.768Z,18.50
2019-05-14T14:01:09.996Z,18.30
2019-05-14T14:03:47.380Z,18.50
2019-05-14T14:06:10.564Z,18.50
2019-05-14T14:08:42.402Z,18.30
2019-05-14T14:11:12.647Z,18.50
2019-05-14T14:13:41.533Z,18.60
2019-05-14T14:16:14.972Z,18.50
2019-05-14T14:18:41.369Z,18.50
2019-05-14T14:21:10.383Z,18.80
2019-05-14T14:23:39.570Z,18.60
2019-05-14T14:26:09.395Z,18.80
2019-05-14T14:28:39.540Z,18.30
2019-05-14T14:31:10.958Z,17.60
2019-05-14T14:33:39.949Z,17.70
2019-05-14T14:36:09.035Z,17.70
2019-05-14T14:38:40.128Z,17.90
2019-05-14T14:41:10.178Z,17.90
2019-05-14T14:43:43.602Z,17.80
2019-05-14T14:46:13.925Z,17.70
2019-05-14T14:48:40.984Z,17.80
2019-05-14T14:51:09.882Z,17.90
2019-05-14T14:53:53.106Z,17.60
2019-05-14T14:56:09.936Z,17.60
2019-05-14T14:58:39.315Z,17.90
2019-05-14T15:01:08.959Z,17.80
2019-05-14T15:03:38.317Z,18.00
2019-05-14T15:06:09.652Z,17.90
2019-05-14T15:08:39.126Z,18.10
2019-05-14T15:11:08.753Z,18.30
2019-05-14T15:13:39.053Z,18.30
2019-05-14T15:16:13.313Z,18.40
2019-05-14T15:18:39.166Z,18.50
2019-05-14T15:21:09.750Z,18.20
2019-05-14T15:23:43.279Z,18.10
2019-05-14T15:26:12.031Z,17.90
2019-05-14T15:28:40.405Z,17.80
2019-05-14T15:31:09.408Z,17.60
2019-05-14T15:33:38.368Z,17.40
2019-05-14T15:36:09.052Z,17.50
2019-05-14T15:38:39.699Z,17.50
2019-05-14T15:41:13.291Z,17.50
2019-05-14T15:43:39.805Z,17.30
2019-05-14T15:46:08.955Z,17.00
2019-05-14T15:48:39.572Z,17.10
2019-05-14T15:51:14.298Z,17.10
2019-05-14T15:53:39.590Z,17.00
2019-05-14T15:56:08.635Z,17.30
2019-05-14T15:58:38.939Z,17.00
2019-05-14T16:01:09.896Z,17.10
2019-05-14T16:03:41.600Z,16.90
2019-05-14T16:06:09.763Z,16.60
2019-05-14T16:08:40.179Z,16.50
2019-05-14T16:11:11.434Z,16.70
2019-05-14T16:13:40.255Z,17.00
2019-05-14T16:16:10.640Z,17.20
2019-05-14T16:18:39.890Z,17.40
2019-05-14T16:21:10.574Z,17.30
2019-05-14T16:23:39.576Z,17.40
2019-05-14T16:26:08.990Z,17.50
2019-05-14T16:28:39.375Z,17.30
2019-05-14T16:31:08.843Z,17.20
2019-05-14T16:33:40.520Z,17.10
2019-05-14T16:36:09.026Z,17.30
2019-05-14T16:38:39.416Z,17.80
2019-05-14T16:41:08.881Z,17.90
2019-05-14T16:43:39.891Z,18.00
2019-05-14T16:46:09.581Z,17.70
2019-05-14T16:48:39.835Z,17.40
2019-05-14T16:51:09.216Z,17.00
2019-05-14T16:53:38.653Z,17.00
2019-05-14T16:56:08.144Z,17.30
2019-05-14T16:58:38.750Z,17.40
2019-05-14T17:01:09.602Z,17.60
2019-05-14T17:03:39.635Z,17.60
2019-05-14T17:06:09.165Z,17.50
2019-05-14T17:08:39.367Z,17.60
2019-05-14T17:11:09.014Z,17.60
2019-05-14T17:13:38.364Z,17.50
2019-05-14T17:16:08.530Z,17.20
2019-05-14T17:18:37.979Z,17.30
2019-05-14T17:21:09.222Z,17.20
2019-05-14T17:23:39.246Z,17.30
2019-05-14T17:26:09.056Z,17.60
2019-05-14T17:28:40.412Z,17.90
2019-05-14T17:31:09.378Z,17.90
2019-05-14T17:33:39.421Z,17.80
2019-05-14T17:36:09.503Z,17.70
2019-05-14T17:38:39.308Z,17.50
2019-05-14T17:41:09.526Z,17.10
2019-05-14T17:43:39.428Z,16.90
2019-05-14T17:46:09.768Z,16.60
2019-05-14T17:48:39.864Z,16.40
2019-05-14T17:51:09.515Z,16.30
2019-05-14T17:53:38.868Z,16.20
2019-05-14T17:56:08.640Z,16.20
2019-05-14T17:58:38.348Z,16.30
2019-05-14T18:01:09.032Z,16.10
2019-05-14T18:03:39.957Z,16.20
2019-05-14T18:06:09.369Z,16.10
2019-05-14T18:08:38.690Z,16.10
2019-05-14T18:11:08.759Z,15.90
2019-05-14T18:13:39.158Z,15.80
2019-05-14T18:16:09.102Z,15.70
2019-05-14T18:18:38.428Z,15.70
2019-05-14T18:21:09.412Z,15.70
2019-05-14T18:23:41.966Z,15.80
2019-05-14T18:26:09.486Z,15.90
2019-05-14T18:28:38.773Z,15.70
2019-05-14T18:31:09.468Z,15.60
2019-05-14T18:33:39.912Z,15.70
2019-05-14T18:36:09.295Z,15.70
2019-05-14T18:38:39.022Z,15.50
2019-05-14T18:41:08.643Z,15.50
2019-05-14T18:43:38.094Z,15.40
2019-05-14T18:46:08.470Z,15.30
2019-05-14T18:48:38.087Z,15.20
2019-05-14T18:51:08.922Z,15.30
2019-05-14T18:53:38.466Z,15.30
2019-05-14T18:56:19.684Z,15.30
2019-05-14T18:58:38.899Z,15.40
2019-05-14T19:01:08.442Z,15.20
2019-05-14T19:03:39.706Z,15.20
2019-05-14T19:06:08.449Z,15.20
2019-05-14T19:08:39.525Z,15.00
2019-05-14T19:11:09.538Z,15.10
2019-05-14T19:14:04.811Z,15.00
2019-05-14T19:16:35.014Z,14.90
2019-05-14T19:19:04.739Z,14.90
2019-05-14T19:21:33.866Z,15.00
2019-05-14T19:24:03.281Z,14.80
2019-05-14T19:26:36.835Z,14.80
2019-05-14T19:29:03.259Z,14.80
2019-05-14T19:31:32.739Z,14.80
2019-05-14T19:34:01.869Z,14.80
2019-05-14T19:36:31.062Z,14.60
2019-05-14T19:39:00.226Z,14.60
2019-05-14T19:41:29.671Z,14.50
2019-05-14T19:43:59.590Z,14.50
2019-05-14T19:46:29.223Z,14.40
2019-05-14T19:48:59.115Z,14.40
2019-05-14T19:51:28.427Z,14.40
2019-05-14T19:54:01.062Z,14.30
2019-05-14T19:56:30.248Z,14.20
2019-05-14T19:58:59.413Z,14.10
2019-05-14T20:01:28.879Z,14.10
2019-05-14T20:03:58.940Z,14.10
2019-05-14T20:06:29.539Z,13.90
2019-05-14T20:08:58.886Z,13.80
2019-05-14T20:11:28.988Z,13.60
2019-05-14T20:13:59.101Z,13.60
2019-05-14T20:16:28.645Z,13.50
2019-05-14T20:18:58.076Z,13.40
2019-05-14T20:21:28.245Z,13.40
2019-05-14T20:23:59.062Z,13.40
2019-05-14T20:26:28.334Z,13.00
2019-05-14T20:28:59.082Z,12.90
2019-05-14T20:31:29.693Z,13.10
2019-05-14T20:33:59.197Z,13.20
2019-05-14T20:36:28.524Z,13.20
2019-05-14T20:38:58.896Z,13.20
2019-05-14T20:41:28.762Z,13.00
2019-05-14T20:43:58.699Z,12.90
2019-05-14T20:46:28.581Z,12.80
2019-05-14T20:48:59.182Z,12.90
2019-05-14T20:51:30.455Z,12.90
2019-05-14T20:53:59.177Z,12.80
2019-05-14T20:56:28.518Z,12.60
2019-05-14T20:58:58.991Z,12.70
2019-05-14T21:01:29.148Z,12.80
2019-05-14T21:03:59.254Z,12.70
2019-05-14T21:06:28.732Z,12.70
2019-05-14T21:08:58.468Z,12.50
2019-05-14T21:11:28.717Z,12.30
2019-05-14T21:13:58.243Z,12.20
2019-05-14T21:16:28.285Z,12.30
2019-05-14T21:18:59.208Z,12.40
2019-05-14T21:21:28.640Z,12.40
2019-05-14T21:23:58.633Z,12.30
2019-05-14T21:26:29.268Z,12.20
2019-05-14T21:28:58.958Z,12.20
2019-05-14T21:31:28.499Z,12.10
2019-05-14T21:33:58.649Z,11.90
2019-05-14T21:36:28.489Z,11.70
2019-05-14T21:38:58.644Z,11.70
2019-05-14T21:41:28.993Z,11.70
2019-05-14T21:44:01.183Z,11.80
2019-05-14T21:46:31.702Z,11.80
2019-05-14T21:49:00.183Z,11.70
2019-05-14T21:51:29.355Z,11.70
2019-05-14T21:53:58.807Z,11.70
2019-05-14T21:56:29.141Z,11.70
2019-05-14T21:59:01.298Z,11.70
2019-05-14T22:01:31.077Z,11.60
2019-05-14T22:04:00.437Z,11.60
2019-05-14T22:06:29.623Z,11.20
2019-05-14T22:08:59.210Z,11.10
2019-05-14T22:11:28.687Z,11.20
2019-05-14T22:13:58.465Z,11.30
2019-05-14T22:16:28.270Z,11.40
2019-05-14T22:18:59.346Z,11.20
2019-05-14T22:21:30.167Z,11.20
2019-05-14T22:23:59.738Z,11.00
2019-05-14T22:26:29.412Z,11.00
2019-05-14T22:28:58.783Z,10.90
2019-05-14T22:31:28.916Z,10.90
2019-05-14T22:33:58.436Z,10.90
2019-05-14T22:36:29.293Z,11.00
2019-05-14T22:38:58.739Z,10.90
2019-05-14T22:41:29.145Z,10.70
2019-05-14T22:43:59.996Z,10.70
2019-05-14T22:46:29.404Z,10.70
2019-05-14T22:48:58.743Z,10.50
2019-05-14T22:51:28.110Z,10.60
2019-05-14T22:53:58.870Z,10.70
2019-05-14T22:56:28.105Z,10.70
2019-05-14T22:58:58.291Z,10.70
2019-05-14T23:01:28.898Z,10.50
2019-05-14T23:03:59.651Z,10.50
2019-05-14T23:06:29.139Z,10.50
2019-05-14T23:08:58.286Z,10.40
2019-05-14T23:11:28.915Z,10.40
2019-05-14T23:13:58.292Z,10.50
2019-05-14T23:16:34.325Z,10.50
2019-05-14T23:18:58.426Z,10.40
2019-05-14T23:21:28.380Z,10.50
2019-05-14T23:23:58.310Z,10.40
2019-05-14T23:26:28.556Z,10.50
2019-05-14T23:28:58.765Z,10.40
2019-05-14T23:31:28.925Z,10.40
2019-05-14T23:33:58.708Z,10.40
2019-05-14T23:36:32.541Z,10.20
2019-05-14T23:39:01.970Z,10.20
2019-05-14T23:41:31.174Z,10.30
2019-05-14T23:44:00.985Z,10.20
2019-05-14T23:46:30.277Z,10.10
2019-05-14T23:48:59.378Z,10.00
2019-05-14T23:51:29.297Z,9.90
2019-05-14T23:53:59.400Z,10.00
2019-05-14T23:56:28.935Z,10.00
2019-05-14T23:59:01.970Z,10.00
